createdAt,value
2022-10-02T00:00:40.690Z,14.10
2022-10-02T00:06:51.461Z,15.73
2022-10-02T00:12:58.448Z,20.63
2022-10-02T00:19:03.254Z,16.20
2022-10-02T00:25:09.605Z,13.15
2022-10-02T00:31:38.781Z,16.80
2022-10-02T00:37:46.626Z,18.23
2022-10-02T00:43:57.952Z,8.38
2022-10-02T00:50:11.838Z,9.77
2022-10-02T00:56:23.672Z,11.07
2022-10-02T01:02:54.078Z,8.55
2022-10-02T01:09:01.664Z,9.32
2022-10-02T01:15:14.699Z,5.68
2022-10-02T01:21:21.579Z,7.45
2022-10-02T01:27:28.334Z,10.63
2022-10-02T01:33:32.535Z,7.60
2022-10-02T01:39:36.137Z,10.93
2022-10-02T01:45:54.911Z,9.73
2022-10-02T01:52:11.231Z,9.55
2022-10-02T01:58:21.291Z,10.15
2022-10-02T02:04:31.243Z,9.95
2022-10-02T02:10:42.164Z,8.00
2022-10-02T02:16:50.078Z,9.40
2022-10-02T02:22:56.804Z,10.35
2022-10-02T02:29:04.366Z,7.85
2022-10-02T02:35:12.147Z,7.53
2022-10-02T02:41:21.379Z,6.78
2022-10-02T02:47:32.299Z,8.48
2022-10-02T02:53:40.807Z,8.23
2022-10-02T02:59:50.008Z,11.27
2022-10-02T03:05:55.133Z,7.43
2022-10-02T03:12:18.187Z,5.88
2022-10-02T03:18:38.090Z,10.57
2022-10-02T03:24:44.715Z,5.63
2022-10-02T03:30:49.039Z,10.25
2022-10-02T03:36:56.815Z,9.20
2022-10-02T03:43:04.837Z,9.30
2022-10-02T03:49:10.624Z,8.23
2022-10-02T03:55:22.603Z,8.07
2022-10-02T04:01:28.107Z,9.27
2022-10-02T04:07:51.701Z,9.43
2022-10-02T04:14:02.646Z,7.78
2022-10-02T04:20:11.392Z,8.10
2022-10-02T04:26:17.795Z,9.52
2022-10-02T04:32:26.525Z,7.68
2022-10-02T04:38:42.063Z,8.68
2022-10-02T04:44:52.975Z,8.15
2022-10-02T04:51:02.768Z,12.00
2022-10-02T04:57:19.067Z,10.50
2022-10-02T05:03:30.556Z,8.88
2022-10-02T05:09:40.645Z,7.28
2022-10-02T05:15:51.475Z,8.07
2022-10-02T05:22:07.686Z,11.68
2022-10-02T05:28:27.049Z,7.63
2022-10-02T05:34:44.047Z,9.20
2022-10-02T05:40:50.888Z,5.75
2022-10-02T05:47:01.674Z,5.30
2022-10-02T05:53:07.346Z,8.88
2022-10-02T05:59:18.508Z,5.78
2022-10-02T06:05:25.723Z,4.65
2022-10-02T06:11:32.132Z,6.85
2022-10-02T06:17:38.482Z,11.05
2022-10-02T06:23:45.365Z,6.05
2022-10-02T06:29:52.649Z,5.25
2022-10-02T06:36:14.023Z,4.20
2022-10-02T06:42:23.461Z,4.88
2022-10-02T06:48:27.585Z,4.35
2022-10-02T06:54:51.315Z,4.35
2022-10-02T07:01:03.444Z,6.45
2022-10-02T07:07:12.436Z,3.50
2022-10-02T07:13:27.456Z,3.53
2022-10-02T07:19:54.525Z,3.65
2022-10-02T07:26:07.492Z,4.00
2022-10-02T07:32:24.127Z,2.45
2022-10-02T07:38:47.112Z,2.78
2022-10-02T07:45:18.972Z,2.53
2022-10-02T07:51:45.822Z,4.50
2022-10-02T07:57:59.739Z,5.03
2022-10-02T08:04:04.741Z,3.15
2022-10-02T08:10:10.029Z,1.60
2022-10-02T08:16:17.130Z,3.38
2022-10-02T08:22:25.760Z,3.72
2022-10-02T08:28:35.357Z,3.72
2022-10-02T08:34:41.105Z,3.78
2022-10-02T08:40:55.905Z,2.75
2022-10-02T08:47:15.941Z,3.35
2022-10-02T08:53:36.995Z,2.08
2022-10-02T09:00:08.002Z,1.15
2022-10-02T09:06:23.564Z,3.00
2022-10-02T09:12:44.819Z,1.50
2022-10-02T09:18:53.101Z,3.70
2022-10-02T09:25:11.309Z,1.23
2022-10-02T09:31:30.147Z,2.35
2022-10-02T09:37:48.461Z,3.55
2022-10-02T09:44:18.518Z,2.13
2022-10-02T09:50:40.004Z,2.63
2022-10-02T09:56:54.456Z,3.58
2022-10-02T10:03:16.387Z,4.18
2022-10-02T10:09:40.513Z,6.53
2022-10-02T10:15:57.757Z,3.92
2022-10-02T10:22:32.585Z,6.05
2022-10-02T10:28:46.650Z,3.95
2022-10-02T10:35:07.324Z,4.35
2022-10-02T10:41:22.411Z,4.95
2022-10-02T10:47:40.632Z,3.72
2022-10-02T10:53:52.469Z,4.63
2022-10-02T11:00:13.106Z,4.45
2022-10-02T11:06:35.521Z,4.65
2022-10-02T11:12:52.476Z,5.80
2022-10-02T11:19:21.225Z,12.10
2022-10-02T11:25:34.162Z,5.25
2022-10-02T11:31:48.073Z,4.20
2022-10-02T11:38:07.495Z,6.10
2022-10-02T11:44:14.747Z,4.47
2022-10-02T11:50:30.923Z,5.60
2022-10-02T11:56:43.993Z,6.15
2022-10-02T12:02:54.143Z,6.35
2022-10-02T12:09:03.653Z,7.68
2022-10-02T12:15:23.048Z,8.93
2022-10-02T12:21:49.994Z,8.45
2022-10-02T12:28:00.374Z,9.40
2022-10-02T12:34:09.605Z,8.10
2022-10-02T12:40:19.961Z,8.43
2022-10-02T12:46:36.836Z,9.80
2022-10-02T12:53:01.329Z,6.68
2022-10-02T12:59:11.265Z,10.88
2022-10-02T13:05:46.046Z,8.57
2022-10-02T13:12:01.359Z,10.82
2022-10-02T13:18:09.080Z,9.75
2022-10-02T13:24:25.530Z,13.43
2022-10-02T13:30:31.589Z,10.30
2022-10-02T13:36:42.714Z,10.45
2022-10-02T13:42:54.336Z,8.93
2022-10-02T13:49:02.833Z,7.45
2022-10-02T13:55:14.754Z,10.43
2022-10-02T14:01:26.168Z,8.77
2022-10-02T14:07:48.161Z,6.40
2022-10-02T14:14:03.203Z,5.95
2022-10-02T14:20:30.188Z,6.25
2022-10-02T14:26:38.013Z,9.43
2022-10-02T14:32:46.726Z,6.88
2022-10-02T14:38:56.096Z,5.13
2022-10-02T14:45:08.723Z,5.88
2022-10-02T14:51:22.240Z,6.75
2022-10-02T14:57:32.877Z,6.78
2022-10-02T15:03:43.528Z,5.75
2022-10-02T15:09:55.596Z,7.82
2022-10-02T15:16:22.286Z,6.10
2022-10-02T15:22:27.613Z,8.77
2022-10-02T15:28:37.956Z,5.68
2022-10-02T15:34:46.720Z,6.95
2022-10-02T15:40:57.240Z,7.70
2022-10-02T15:47:04.922Z,5.95
2022-10-02T15:53:28.954Z,6.50
2022-10-02T15:59:41.805Z,7.57
2022-10-02T16:05:53.211Z,7.50
2022-10-02T16:12:20.474Z,5.60
2022-10-02T16:18:33.331Z,6.72
2022-10-02T16:24:47.182Z,6.60
2022-10-02T16:31:06.476Z,8.38
2022-10-02T16:37:21.181Z,5.78
2022-10-02T16:43:31.955Z,6.03
2022-10-02T16:49:44.373Z,6.70
2022-10-02T16:55:51.500Z,5.18
2022-10-02T17:02:18.316Z,6.15
2022-10-02T17:08:25.261Z,4.72
2022-10-02T17:14:39.393Z,6.32
2022-10-02T17:20:44.672Z,8.52
2022-10-02T17:26:51.896Z,6.50
2022-10-02T17:33:07.717Z,8.55
2022-10-02T17:39:23.580Z,8.73
2022-10-02T17:45:33.636Z,11.75
2022-10-02T17:52:00.036Z,12.02
2022-10-02T17:58:07.307Z,7.75
2022-10-02T18:04:20.789Z,9.68
2022-10-02T18:10:32.393Z,10.15
2022-10-02T18:16:45.098Z,7.30
2022-10-02T18:22:58.509Z,8.18
2022-10-02T18:29:11.086Z,8.10
2022-10-02T18:35:23.844Z,7.25
2022-10-02T18:41:48.356Z,10.18
2022-10-02T18:47:57.470Z,14.63
2022-10-02T18:54:11.717Z,8.48
2022-10-02T19:00:17.237Z,17.88
2022-10-02T19:06:26.493Z,11.02
2022-10-02T19:12:33.408Z,9.25
2022-10-02T19:18:37.333Z,8.63
2022-10-02T19:24:43.953Z,13.68
2022-10-02T19:30:49.980Z,9.40
2022-10-02T19:36:54.961Z,11.85
2022-10-02T19:43:02.519Z,8.75
2022-10-02T19:49:10.144Z,9.02
2022-10-02T19:55:22.567Z,10.20
2022-10-02T20:01:28.617Z,8.48
2022-10-02T20:07:34.447Z,8.88
2022-10-02T20:13:44.247Z,7.80
2022-10-02T20:19:51.889Z,13.15
2022-10-02T20:25:58.711Z,11.77
2022-10-02T20:32:07.942Z,8.65
2022-10-02T20:38:17.243Z,9.95
2022-10-02T20:44:21.344Z,9.23
2022-10-02T20:50:41.582Z,7.68
2022-10-02T20:56:55.873Z,11.32
2022-10-02T21:03:17.559Z,7.78
2022-10-02T21:09:42.579Z,7.63
2022-10-02T21:16:10.926Z,6.47
2022-10-02T21:22:32.855Z,5.45
2022-10-02T21:28:57.367Z,8.30
2022-10-02T21:35:10.553Z,8.13
2022-10-02T21:41:32.745Z,7.20
2022-10-02T21:47:45.349Z,8.13
2022-10-02T21:54:13.180Z,12.10
2022-10-02T22:00:19.471Z,7.43
2022-10-02T22:06:37.570Z,6.60
2022-10-02T22:12:51.243Z,7.63
2022-10-02T22:18:57.788Z,6.97
2022-10-02T22:25:15.019Z,11.02
2022-10-02T22:31:37.333Z,11.18
2022-10-02T22:37:56.924Z,8.50
2022-10-02T22:44:02.623Z,9.02
2022-10-02T22:50:11.629Z,9.32
2022-10-02T22:56:21.102Z,5.65
2022-10-02T23:02:28.371Z,6.97
2022-10-02T23:08:42.061Z,10.10
2022-10-02T23:14:51.384Z,8.25
2022-10-02T23:21:02.475Z,9.23
2022-10-02T23:27:12.024Z,6.63
2022-10-02T23:33:22.044Z,6.93
2022-10-02T23:39:30.356Z,8.07
2022-10-02T23:45:40.734Z,7.45
2022-10-02T23:51:48.035Z,8.95
2022-10-02T23:58:04.034Z,6.72
